Time;durP1;ratioP1;P1;durP2;ratioP2;P2;SDS_P1;SDS_P2;PMS_P1;PMS_P2;Temp;Humidity;BMP_temperature;BMP_pressure;BME280_temperature;BME280_humidity;BME280_pressure;Samples;Min_cycle;Max_cycle;Signal;HPM_P1;HPM_P2
2022/01/26 00:07:42;;;;;;;12.98;7.03;;;2.20;55.40;;;;;;5068046;28;34435;-76
2022/01/26 00:10:08;;;;;;;11.60;6.97;;;2.20;55.30;;;;;;5065223;28;35936;-76
2022/01/26 00:12:34;;;;;;;13.32;7.32;;;2.10;55.30;;;;;;5065452;28;34292;-76
2022/01/26 00:15:00;;;;;;;13.45;7.47;;;2.10;55.20;;;;;;5065456;28;34279;-76
2022/01/26 00:17:26;;;;;;;13.65;7.60;;;2.10;55.10;;;;;;5065451;28;34199;-76
2022/01/26 00:20:00;;;;;;;13.55;7.22;;;2.10;55.20;;;;;;5082995;28;34241;-76
2022/01/26 00:22:56;;;;;;;12.10;6.75;;;2.10;55.30;;;;;;5083263;28;34071;-76
2022/01/26 00:25:35;;;;;;;13.85;6.93;;;2.00;55.10;;;;;;5068107;28;34192;-76
2022/01/26 00:28:32;;;;;;;12.02;6.88;;;2.00;55.20;;;;;;5054541;28;34485;-76
2022/01/26 00:38:54;;;;;;;15.80;8.57;;;1.90;55.30;;;;;;5082579;28;34143;-76
2022/01/26 00:41:34;;;;;;;11.70;6.93;;;2.00;56.00;;;;;;5031398;28;36368;-76
2022/01/26 00:44:00;;;;;;;16.88;7.78;;;2.00;55.30;;;;;;5067281;28;34324;-76
2022/01/26 00:46:26;;;;;;;15.52;7.35;;;2.00;55.30;;;;;;5064938;28;34127;-76
2022/01/26 00:48:53;;;;;;;16.13;8.32;;;2.00;55.30;;;;;;5048569;28;34179;-76
2022/01/26 00:51:21;;;;;;;13.70;7.50;;;2.00;55.30;;;;;;5064591;28;35951;-76
2022/01/26 00:53:59;;;;;;;14.77;7.72;;;2.00;55.30;;;;;;5064769;28;34152;-76
2022/01/26 00:56:25;;;;;;;13.70;7.68;;;2.00;55.30;;;;;;5065268;28;34109;-76
2022/01/26 00:58:51;;;;;;;15.77;8.55;;;1.90;55.30;;;;;;5065464;28;34424;-76
2022/01/26 01:01:17;;;;;;;14.45;7.32;;;2.00;55.20;;;;;;5065589;28;35560;-76
2022/01/26 01:03:45;;;;;;;14.93;7.80;;;1.90;55.20;;;;;;5065376;28;34231;-76
2022/01/26 01:06:19;;;;;;;15.75;8.35;;;1.90;55.20;;;;;;5047836;28;34170;-76
2022/01/26 01:08:46;;;;;;;17.80;9.38;;;1.90;55.30;;;;;;5067733;28;34184;-78
2022/01/26 01:11:13;;;;;;;15.05;7.68;;;1.90;55.30;;;;;;5065412;28;35712;-76
2022/01/26 01:13:41;;;;;;;14.45;8.27;;;1.90;55.40;;;;;;5065318;28;34304;-76
2022/01/26 01:16:12;;;;;;;15.55;7.95;;;1.90;55.40;;;;;;5084339;28;34108;-76
2022/01/26 01:18:46;;;;;;;12.27;7.82;;;1.90;55.50;;;;;;5050332;28;34152;-76
2022/01/26 01:24:21;;;;;;;14.75;7.85;;;1.90;55.50;;;;;;5070510;28;34505;-76
2022/01/26 01:29:37;;;;;;;15.50;8.10;;;2.00;55.50;;;;;;5083428;28;34154;-76
2022/01/26 01:32:11;;;;;;;14.00;8.18;;;2.00;55.50;;;;;;5066027;28;35665;-77
2022/01/26 01:34:39;;;;;;;14.70;7.28;;;2.00;55.50;;;;;;5067156;28;34402;-77
2022/01/26 01:37:09;;;;;;;15.50;8.57;;;1.90;55.50;;;;;;5067835;28;33859;-76
2022/01/26 01:39:36;;;;;;;15.20;7.90;;;1.90;55.30;;;;;;5036603;28;34385;-76
2022/01/26 01:42:05;;;;;;;15.27;7.90;;;1.90;55.50;;;;;;5068574;28;35736;-76
2022/01/26 01:44:32;;;;;;;11.63;6.72;;;1.90;55.50;;;;;;5036066;28;34308;-76
2022/01/26 01:46:58;;;;;;;15.63;7.70;;;1.80;55.50;;;;;;5067837;28;34398;-76
2022/01/26 01:49:25;;;;;;;12.93;7.43;;;1.80;55.50;;;;;;5070026;28;33803;-77
2022/01/26 01:51:56;;;;;;;15.32;7.90;;;1.80;55.60;;;;;;5071728;28;36024;-77
2022/01/26 01:54:22;;;;;;;16.35;8.75;;;1.80;55.50;;;;;;5070670;28;34254;-77
2022/01/26 01:56:54;;;;;;;15.73;7.95;;;1.80;55.50;;;;;;5071392;28;34028;-77
2022/01/26 01:59:22;;;;;;;11.65;7.13;;;1.80;55.70;;;;;;5056972;28;34196;-77
2022/01/26 02:01:48;;;;;;;17.90;8.43;;;1.80;55.60;;;;;;5073268;28;36525;-77
2022/01/26 02:04:14;;;;;;;13.70;7.25;;;1.80;55.60;;;;;;5073443;28;34047;-76
2022/01/26 02:06:43;;;;;;;13.20;7.65;;;1.90;55.70;;;;;;5073727;28;34110;-77
2022/01/26 02:09:10;;;;;;;16.65;7.97;;;1.90;55.70;;;;;;5058196;28;34145;-77
2022/01/26 02:11:43;;;;;;;14.02;8.05;;;1.90;55.60;;;;;;5073839;28;34355;-77
2022/01/26 02:14:11;;;;;;;14.55;8.18;;;1.90;56.20;;;;;;5057479;28;34184;-77
2022/01/26 02:16:47;;;;;;;16.13;8.07;;;1.90;55.50;;;;;;5074488;28;34251;-77
2022/01/26 02:19:44;;;;;;;16.83;7.82;;;1.90;55.60;;;;;;5076744;28;34259;-77
2022/01/26 02:49:18;;;;;;;15.52;7.32;;;1.90;55.80;;;;;;5080412;28;35406;-77
2022/01/26 02:57:27;;;;;;;13.73;7.18;;;2.10;55.70;;;;;;5080051;28;34084;-77
2022/01/26 03:00:12;;;;;;;17.42;7.55;;;2.10;55.70;;;;;;5066052;28;34284;-77
2022/01/26 03:02:45;;;;;;;16.60;8.30;;;2.10;55.70;;;;;;5079010;28;34416;-77
2022/01/26 03:05:14;;;;;;;20.08;8.50;;;2.10;55.70;;;;;;5076667;28;35577;-77
2022/01/26 03:07:46;;;;;;;17.33;7.97;;;2.10;55.60;;;;;;5074448;28;34260;-77
2022/01/26 03:10:19;;;;;;;16.65;8.35;;;2.10;55.70;;;;;;5073962;28;34029;-77
2022/01/26 03:12:52;;;;;;;15.57;8.35;;;2.10;55.60;;;;;;5057827;28;34086;-77
2022/01/26 03:15:24;;;;;;;15.52;8.68;;;2.10;55.70;;;;;;5073244;28;35767;-77
2022/01/26 03:20:33;;;;;;;17.65;8.50;;;2.10;55.90;;;;;;5079072;28;34076;-77
2022/01/26 03:28:27;;;;;;;16.10;8.02;;;2.20;55.70;;;;;;5091705;28;34119;-76
2022/01/26 03:31:32;;;;;;;15.77;8.57;;;2.20;55.80;;;;;;5042467;28;33713;-77
2022/01/26 03:33:54;;;;;;;15.52;8.73;;;2.20;55.90;;;;;;5078019;28;34164;-77
2022/01/26 03:36:21;;;;;;;16.50;8.65;;;2.20;55.90;;;;;;5074434;28;35832;-76
2022/01/26 03:38:56;;;;;;;20.48;9.65;;;2.20;55.90;;;;;;5057309;28;34319;-77
2022/01/26 03:41:36;;;;;;;18.63;9.40;;;2.20;55.90;;;;;;5073520;28;34355;-77
2022/01/26 03:44:03;;;;;;;18.98;9.65;;;2.30;55.90;;;;;;5074756;28;34123;-77
2022/01/26 03:46:30;;;;;;;14.85;9.07;;;2.30;55.90;;;;;;5058199;28;35727;-77
2022/01/26 03:48:56;;;;;;;19.27;9.77;;;2.30;55.80;;;;;;5076299;28;34247;-77
2022/01/26 03:51:22;;;;;;;15.27;9.07;;;2.30;55.90;;;;;;5074419;28;34061;-77
2022/01/26 03:53:48;;;;;;;18.45;9.65;;;2.30;55.80;;;;;;5093665;28;34477;-77
2022/01/26 03:56:15;;;;;;;21.67;10.65;;;2.30;55.80;;;;;;5093728;28;34141;-77
2022/01/26 03:58:41;;;;;;;19.25;9.38;;;2.30;55.80;;;;;;5074695;28;34363;-77
2022/01/26 04:01:07;;;;;;;22.17;10.27;;;2.30;55.80;;;;;;5075131;28;34344;-77
2022/01/26 04:03:33;;;;;;;22.48;10.20;;;2.30;55.90;;;;;;5074395;28;34224;-77
2022/01/26 04:05:59;;;;;;;19.45;9.88;;;2.30;55.80;;;;;;5057667;28;35606;-77
2022/01/26 04:08:29;;;;;;;17.38;9.68;;;2.40;55.90;;;;;;5058082;28;34097;-77
2022/01/26 04:11:16;;;;;;;16.23;9.00;;;2.40;55.80;;;;;;5075058;28;33749;-77
2022/01/26 04:13:42;;;;;;;20.48;10.30;;;2.40;55.90;;;;;;5062093;28;34588;-77
2022/01/26 04:16:08;;;;;;;16.85;9.27;;;2.40;55.80;;;;;;5090575;28;34210;-77
2022/01/26 04:18:38;;;;;;;19.02;10.02;;;2.40;55.70;;;;;;5091622;28;34187;-77
2022/01/26 04:23:58;;;;;;;15.77;9.13;;;2.40;55.80;;;;;;5075498;28;34070;-77
2022/01/26 04:26:32;;;;;;;17.38;9.20;;;2.40;55.90;;;;;;5072055;27;35650;-77
2022/01/26 04:29:03;;;;;;;16.88;9.57;;;2.40;55.80;;;;;;5071063;28;34063;-77
2022/01/26 04:31:29;;;;;;;20.40;9.77;;;2.40;55.90;;;;;;5071514;28;34230;-77
2022/01/26 04:33:55;;;;;;;19.85;9.05;;;2.40;55.90;;;;;;5089652;28;34065;-77
2022/01/26 04:36:28;;;;;;;16.75;9.25;;;2.40;55.90;;;;;;5088689;28;34053;-77
2022/01/26 04:38:59;;;;;;;20.27;10.10;;;2.40;55.80;;;;;;5069890;28;34384;-77
2022/01/26 04:41:39;;;;;;;19.58;9.40;;;2.40;55.80;;;;;;5071018;28;34327;-77
2022/01/26 04:46:46;;;;;;;21.77;9.65;;;2.40;56.00;;;;;;5074086;28;34297;-77
2022/01/26 04:49:12;;;;;;;20.23;9.23;;;2.50;56.10;;;;;;5072602;28;34472;-77
2022/01/26 04:51:38;;;;;;;20.08;9.90;;;2.50;56.00;;;;;;5072190;28;34306;-76
2022/01/26 04:54:04;;;;;;;23.30;10.40;;;2.50;56.00;;;;;;5071665;28;34580;-77
2022/01/26 04:56:30;;;;;;;20.80;10.10;;;2.50;56.00;;;;;;5055600;28;35594;-77
2022/01/26 04:58:56;;;;;;;19.38;9.93;;;2.50;56.70;;;;;;5072415;28;34116;-77
2022/01/26 05:01:22;;;;;;;20.48;9.50;;;2.60;55.90;;;;;;5055951;28;34170;-77
2022/01/26 05:03:48;;;;;;;20.20;9.82;;;2.60;55.90;;;;;;5056463;28;34023;-77
2022/01/26 05:06:14;;;;;;;14.07;8.57;;;2.60;55.90;;;;;;5054708;28;35729;-77
2022/01/26 05:08:40;;;;;;;18.45;9.43;;;2.60;55.90;;;;;;5069996;28;34317;-77
2022/01/26 05:11:09;;;;;;;20.23;9.68;;;2.60;55.90;;;;;;5070841;28;34160;-77
2022/01/26 05:13:35;;;;;;;19.65;9.90;;;2.60;56.00;;;;;;5069962;28;34144;-77
2022/01/26 05:16:02;;;;;;;16.65;9.10;;;2.60;56.00;;;;;;5070077;28;36312;-77
2022/01/26 05:18:29;;;;;;;16.98;9.60;;;2.60;56.00;;;;;;5070136;28;34223;-77
2022/01/26 05:20:56;;;;;;;18.73;9.70;;;2.60;56.00;;;;;;5070021;28;34636;-77
2022/01/26 05:23:22;;;;;;;17.88;9.55;;;2.60;56.00;;;;;;5070546;28;34208;-77
2022/01/26 05:25:48;;;;;;;20.45;10.38;;;2.60;56.10;;;;;;5069572;28;35749;-77
2022/01/26 05:28:14;;;;;;;16.92;9.85;;;2.60;56.10;;;;;;5068231;28;34538;-77
2022/01/26 05:30:40;;;;;;;16.98;9.48;;;2.60;56.00;;;;;;5050488;28;34375;-77
2022/01/26 05:33:06;;;;;;;22.02;10.40;;;2.70;56.10;;;;;;5085464;28;34125;-77
2022/01/26 05:35:33;;;;;;;20.98;10.23;;;2.70;56.00;;;;;;5066840;28;35499;-77
2022/01/26 05:37:59;;;;;;;20.42;9.82;;;2.70;56.00;;;;;;5067267;28;34140;-77
2022/01/26 05:40:26;;;;;;;20.70;10.60;;;2.70;55.90;;;;;;5067233;28;34293;-77
2022/01/26 05:42:52;;;;;;;20.10;10.00;;;2.70;56.00;;;;;;5050120;28;34511;-76
2022/01/26 05:45:25;;;;;;;19.02;9.45;;;2.70;55.90;;;;;;5066418;28;35991;-77
2022/01/26 05:47:51;;;;;;;19.38;10.73;;;2.70;56.00;;;;;;5066574;28;34249;-77
2022/01/26 05:50:19;;;;;;;16.45;8.75;;;2.70;56.00;;;;;;5065134;28;34334;-77
2022/01/26 05:52:45;;;;;;;19.55;9.32;;;2.70;55.70;;;;;;5032610;28;34606;-76
2022/01/26 05:55:11;;;;;;;17.65;9.38;;;2.70;55.50;;;;;;5069673;28;34162;-77
2022/01/26 05:57:37;;;;;;;19.27;9.40;;;2.70;55.30;;;;;;5068662;28;34207;-76
2022/01/26 06:00:05;;;;;;;19.38;10.43;;;2.70;55.30;;;;;;5052668;28;34279;-77
2022/01/26 06:02:32;;;;;;;19.58;10.25;;;2.70;55.30;;;;;;5087742;28;34192;-76
2022/01/26 06:04:58;;;;;;;19.20;9.60;;;2.70;55.20;;;;;;5068196;28;35638;-76
2022/01/26 06:07:24;;;;;;;17.35;9.20;;;2.70;55.20;;;;;;5085824;28;34199;-76
2022/01/26 06:09:50;;;;;;;19.27;9.82;;;2.70;55.20;;;;;;5085329;28;34325;-77
2022/01/26 06:12:16;;;;;;;17.75;9.60;;;2.70;55.20;;;;;;5051677;28;34346;-76
2022/01/26 06:14:42;;;;;;;20.42;10.88;;;2.70;55.40;;;;;;5068741;28;35578;-77
2022/01/26 06:17:08;;;;;;;15.55;9.13;;;2.70;55.50;;;;;;5067897;28;34112;-77
2022/01/26 06:19:34;;;;;;;19.42;9.07;;;2.60;55.30;;;;;;5035733;28;34389;-77
2022/01/26 06:22:00;;;;;;;17.90;9.02;;;2.60;55.10;;;;;;5068841;28;34195;-77
2022/01/26 06:24:26;;;;;;;18.90;9.93;;;2.50;55.20;;;;;;5068096;28;36293;-76
2022/01/26 06:26:52;;;;;;;18.23;9.32;;;2.60;55.30;;;;;;5067582;28;34199;-77
2022/01/26 06:29:18;;;;;;;19.05;8.80;;;2.50;55.40;;;;;;5067290;28;34342;-76
2022/01/26 06:31:44;;;;;;;19.58;9.80;;;2.60;55.50;;;;;;5050395;28;34450;-76
2022/01/26 06:34:11;;;;;;;21.98;9.05;;;2.60;55.40;;;;;;5050708;28;36361;-77
2022/01/26 06:36:43;;;;;;;17.45;9.18;;;2.50;55.20;;;;;;5085356;28;34164;-76
2022/01/26 06:39:11;;;;;;;15.85;9.13;;;2.50;55.10;;;;;;5066485;28;34316;-76
2022/01/26 06:41:38;;;;;;;16.92;8.40;;;2.50;55.20;;;;;;5066803;28;34495;-77
2022/01/26 06:44:17;;;;;;;19.80;9.63;;;2.50;55.10;;;;;;5066942;28;36121;-77
2022/01/26 06:46:58;;;;;;;17.15;9.02;;;2.50;55.20;;;;;;5051998;28;34167;-77
2022/01/26 06:49:28;;;;;;;16.77;9.85;;;2.50;55.30;;;;;;5051449;28;34303;-77
2022/01/26 06:51:56;;;;;;;15.75;8.35;;;2.50;55.20;;;;;;5050969;28;34305;-77
2022/01/26 06:54:24;;;;;;;18.30;9.35;;;2.60;55.30;;;;;;5034617;28;34252;-77
2022/01/26 06:56:51;;;;;;;15.93;8.68;;;2.60;55.30;;;;;;5051269;28;34263;-77
2022/01/26 06:59:17;;;;;;;15.95;8.50;;;2.60;55.30;;;;;;5066991;28;34266;-76
2022/01/26 07:01:43;;;;;;;17.33;8.65;;;2.60;55.10;;;;;;5085477;28;34138;-76
2022/01/26 07:04:09;;;;;;;17.77;9.90;;;2.60;55.20;;;;;;5065499;28;36026;-77
2022/01/26 07:06:35;;;;;;;18.58;9.70;;;2.60;55.20;;;;;;5049099;28;34101;-76
2022/01/26 07:09:02;;;;;;;17.85;9.38;;;2.60;55.10;;;;;;5050131;28;34174;-76
2022/01/26 07:11:28;;;;;;;16.90;9.25;;;2.60;55.20;;;;;;5084381;28;34191;-76
2022/01/26 07:13:58;;;;;;;17.20;9.50;;;2.60;55.20;;;;;;5066265;28;35779;-77
2022/01/26 07:21:46;;;;;;;22.08;10.52;;;2.70;55.30;;;;;;5068652;28;34152;-76
2022/01/26 07:24:12;;;;;;;17.70;9.55;;;2.70;55.40;;;;;;5049186;28;36495;-76
2022/01/26 07:26:38;;;;;;;20.13;9.70;;;2.70;55.30;;;;;;5032706;28;34299;-76
2022/01/26 07:29:10;;;;;;;20.70;10.02;;;2.70;55.20;;;;;;5049090;28;34255;-76
2022/01/26 07:31:42;;;;;;;18.08;9.55;;;2.70;55.10;;;;;;5050375;28;34099;-76
2022/01/26 07:34:10;;;;;;;17.23;8.57;;;2.70;54.90;;;;;;5067010;28;35649;-76
2022/01/26 07:36:36;;;;;;;17.40;7.97;;;2.70;54.50;;;;;;5068089;28;34172;-76
2022/01/26 07:39:10;;;;;;;19.95;8.52;;;2.60;54.40;;;;;;5034221;28;34132;-76
2022/01/26 07:41:36;;;;;;;16.48;8.20;;;2.60;54.50;;;;;;5065917;28;34026;-76
2022/01/26 07:44:03;;;;;;;15.40;8.20;;;2.60;54.60;;;;;;5067051;28;35834;-76
2022/01/26 07:46:30;;;;;;;16.48;8.70;;;2.60;54.30;;;;;;5066835;28;34083;-76
2022/01/26 07:48:56;;;;;;;17.73;8.30;;;2.60;54.30;;;;;;5050482;28;34582;-76
2022/01/26 07:51:23;;;;;;;13.25;8.20;;;2.60;54.20;;;;;;5050434;28;34386;-76
2022/01/26 07:53:49;;;;;;;17.52;8.18;;;2.60;54.30;;;;;;5066650;28;35535;-76
2022/01/26 07:56:15;;;;;;;13.38;7.88;;;2.60;54.20;;;;;;5084869;28;34208;-76
2022/01/26 07:58:42;;;;;;;12.75;7.85;;;2.60;54.10;;;;;;5067186;28;34199;-76
2022/01/26 08:01:08;;;;;;;12.00;7.35;;;2.60;54.90;;;;;;5066180;28;34462;-76
2022/01/26 08:03:34;;;;;;;14.02;7.60;;;2.60;54.10;;;;;;5083303;28;34337;-76
2022/01/26 08:06:02;;;;;;;15.38;7.35;;;2.50;53.90;;;;;;5032442;28;34109;-76
2022/01/26 08:08:28;;;;;;;13.80;7.35;;;2.60;54.70;;;;;;5049013;28;34187;-76
2022/01/26 08:10:57;;;;;;;13.48;7.22;;;2.60;53.90;;;;;;5065684;28;34140;-76
2022/01/26 08:13:23;;;;;;;16.77;8.25;;;2.60;54.10;;;;;;5048482;28;35481;-76
2022/01/26 08:15:49;;;;;;;15.20;7.68;;;2.60;53.70;;;;;;5065676;28;34183;-76
2022/01/26 08:18:15;;;;;;;13.88;7.18;;;2.60;53.90;;;;;;5065853;28;34270;-76
2022/01/26 08:20:41;;;;;;;15.77;7.43;;;2.60;54.00;;;;;;5049535;28;35062;-76
2022/01/26 08:23:08;;;;;;;11.95;7.22;;;2.60;54.10;;;;;;5049960;28;34270;-76
2022/01/26 08:25:34;;;;;;;14.02;7.05;;;2.60;54.10;;;;;;5064792;28;34438;-76
2022/01/26 08:28:08;;;;;;;16.35;8.82;;;2.60;53.60;;;;;;5065304;28;34296;-76
2022/01/26 08:30:37;;;;;;;13.25;8.20;;;2.60;53.60;;;;;;5064823;28;34242;-76
2022/01/26 08:33:05;;;;;;;13.57;7.57;;;2.60;53.80;;;;;;5083113;28;34903;-76
2022/01/26 08:35:32;;;;;;;15.13;7.15;;;2.60;54.50;;;;;;5065194;28;34576;-76
2022/01/26 08:37:58;;;;;;;16.23;8.07;;;2.60;53.60;;;;;;5065350;28;34318;-76
2022/01/26 08:40:25;;;;;;;14.93;8.02;;;2.60;53.60;;;;;;5065600;28;34623;-76
2022/01/26 08:42:52;;;;;;;13.48;7.82;;;2.60;53.60;;;;;;5065620;28;35552;-76
2022/01/26 08:45:18;;;;;;;14.32;7.70;;;2.60;53.60;;;;;;5084193;28;34163;-76
2022/01/26 08:47:44;;;;;;;12.45;7.38;;;2.60;53.80;;;;;;5065740;28;34073;-76
2022/01/26 08:50:10;;;;;;;14.52;7.63;;;2.60;53.60;;;;;;5066136;28;34214;-76
2022/01/26 08:52:36;;;;;;;16.20;8.32;;;2.60;53.50;;;;;;5048249;28;36473;-76
2022/01/26 08:55:03;;;;;;;16.08;8.85;;;2.60;53.60;;;;;;5049187;28;34171;-76
2022/01/26 08:57:29;;;;;;;13.30;7.90;;;2.60;53.60;;;;;;5065354;28;34147;-76
2022/01/26 08:59:55;;;;;;;15.25;7.43;;;2.60;53.60;;;;;;5065725;28;34061;-76
2022/01/26 09:02:21;;;;;;;14.48;7.15;;;2.60;53.80;;;;;;5048575;28;35505;-75
2022/01/26 09:04:47;;;;;;;13.23;7.00;;;2.70;53.50;;;;;;5065604;28;34176;-76
2022/01/26 09:07:15;;;;;;;13.20;7.07;;;2.70;53.10;;;;;;5048719;28;34419;-76
2022/01/26 09:09:44;;;;;;;12.52;7.43;;;2.60;53.00;;;;;;5049141;28;34104;-76
2022/01/26 09:12:13;;;;;;;12.90;7.28;;;2.60;53.40;;;;;;5065304;28;35520;-76
2022/01/26 09:14:39;;;;;;;13.85;7.50;;;2.60;53.50;;;;;;5048782;28;34090;-76
2022/01/26 09:17:07;;;;;;;17.55;7.85;;;2.60;53.50;;;;;;5065727;28;34200;-76
2022/01/26 09:19:34;;;;;;;15.98;7.93;;;2.60;53.50;;;;;;5083615;28;34318;-76
2022/01/26 09:22:03;;;;;;;15.95;7.63;;;2.70;53.70;;;;;;5048045;28;35971;-76
2022/01/26 09:24:31;;;;;;;15.02;8.00;;;2.70;53.60;;;;;;5048493;28;34450;-75
2022/01/26 09:26:58;;;;;;;15.52;8.90;;;2.70;53.30;;;;;;5065580;28;34317;-76
2022/01/26 09:29:24;;;;;;;14.77;7.53;;;2.70;53.40;;;;;;5085188;28;34396;-75
2022/01/26 09:31:51;;;;;;;14.07;7.70;;;2.60;53.10;;;;;;5067881;28;35571;-76
2022/01/26 09:34:19;;;;;;;12.95;7.32;;;2.60;53.20;;;;;;5068422;28;34022;-76
2022/01/26 09:36:46;;;;;;;14.57;7.75;;;2.60;53.40;;;;;;5068039;28;34247;-76
2022/01/26 09:39:14;;;;;;;13.48;7.95;;;2.60;53.40;;;;;;5068214;28;34184;-76
2022/01/26 09:41:40;;;;;;;13.85;6.38;;;2.60;53.00;;;;;;5050864;28;35803;-75
2022/01/26 09:44:07;;;;;;;11.73;7.00;;;2.60;53.10;;;;;;5068385;28;34274;-76
2022/01/26 09:46:34;;;;;;;12.88;7.90;;;2.70;53.10;;;;;;5067841;28;34330;-76
2022/01/26 09:49:01;;;;;;;12.38;7.47;;;2.70;53.00;;;;;;5086603;28;34480;-76
2022/01/26 09:51:28;;;;;;;11.40;6.57;;;2.70;53.30;;;;;;5067886;28;35543;-76
2022/01/26 09:54:04;;;;;;;11.25;6.55;;;2.70;53.10;;;;;;5068563;28;34412;-75
2022/01/26 09:56:31;;;;;;;12.65;6.82;;;2.70;52.80;;;;;;5051256;28;34085;-75
2022/01/26 09:58:57;;;;;;;11.25;6.65;;;2.70;52.70;;;;;;5051589;28;34305;-76
2022/01/26 10:01:24;;;;;;;15.98;7.43;;;2.70;53.00;;;;;;5051140;28;36497;-76
2022/01/26 10:03:51;;;;;;;14.00;7.65;;;2.70;52.90;;;;;;5067830;28;34471;-76
2022/01/26 10:06:24;;;;;;;11.27;6.88;;;2.70;53.10;;;;;;5067583;28;34418;-76
2022/01/26 10:08:59;;;;;;;11.20;6.47;;;2.70;53.00;;;;;;5068181;28;34561;-75
2022/01/26 10:19:42;;;;;;;12.38;7.10;;;2.70;53.10;;;;;;5042472;28;34306;-76
2022/01/26 10:22:08;;;;;;;11.50;6.93;;;2.80;53.30;;;;;;5050531;28;35728;-76
2022/01/26 10:24:34;;;;;;;12.20;6.57;;;2.80;53.20;;;;;;5067335;28;34387;-75
2022/01/26 10:27:01;;;;;;;11.52;6.30;;;2.80;53.00;;;;;;5050523;28;34165;-75
2022/01/26 10:29:29;;;;;;;10.88;6.72;;;2.80;52.30;;;;;;5067681;28;34323;-75
2022/01/26 10:31:56;;;;;;;10.68;6.20;;;2.80;52.70;;;;;;5050588;28;35646;-75
2022/01/26 10:34:24;;;;;;;11.93;6.35;;;2.80;52.70;;;;;;5067467;28;34045;-75
2022/01/26 10:37:00;;;;;;;10.98;6.18;;;2.80;52.60;;;;;;5067635;28;34216;-75
2022/01/26 10:39:33;;;;;;;11.13;5.72;;;2.80;52.60;;;;;;5084544;28;34426;-76
2022/01/26 10:42:04;;;;;;;11.13;6.32;;;2.80;52.60;;;;;;5067013;28;35665;-76
2022/01/26 10:44:36;;;;;;;11.80;6.43;;;2.80;52.60;;;;;;5066670;28;34347;-75
2022/01/26 10:47:04;;;;;;;10.05;5.50;;;2.90;52.80;;;;;;5067350;28;34302;-76
2022/01/26 10:52:21;;;;;;;10.75;5.68;;;2.90;52.40;;;;;;5084384;28;34278;-75
2022/01/26 10:54:48;;;;;;;12.10;6.20;;;2.90;51.80;;;;;;5067085;28;34202;-75
2022/01/26 10:57:14;;;;;;;10.48;6.60;;;2.80;52.30;;;;;;5066671;28;34337;-76
2022/01/26 10:59:44;;;;;;;11.15;6.95;;;2.90;52.50;;;;;;5084853;28;34375;-75
2022/01/26 11:02:11;;;;;;;11.65;7.03;;;2.90;52.20;;;;;;5084616;28;35040;-75
2022/01/26 11:04:42;;;;;;;11.23;6.22;;;3.00;52.20;;;;;;5033842;28;34445;-75
2022/01/26 11:07:10;;;;;;;11.82;6.28;;;3.00;52.00;;;;;;5067885;28;34366;-75
2022/01/26 11:09:39;;;;;;;15.55;6.82;;;3.00;51.90;;;;;;5066681;28;34323;-75
2022/01/26 11:12:09;;;;;;;13.48;7.50;;;3.00;52.00;;;;;;5066442;28;36850;-75
2022/01/26 11:14:51;;;;;;;11.93;6.63;;;3.10;52.10;;;;;;5066714;28;34176;-75
2022/01/26 11:17:29;;;;;;;14.38;7.28;;;3.10;51.60;;;;;;5067458;28;34326;-75
2022/01/26 11:19:57;;;;;;;12.80;6.97;;;3.10;51.90;;;;;;5066619;28;34298;-75
2022/01/26 11:22:28;;;;;;;15.10;6.80;;;3.20;52.00;;;;;;5084087;28;35492;-75
2022/01/26 11:25:06;;;;;;;13.38;7.63;;;3.20;52.00;;;;;;5066885;28;34197;-75
2022/01/26 11:27:34;;;;;;;13.25;7.53;;;3.30;52.00;;;;;;5066668;28;34278;-75
2022/01/26 11:30:05;;;;;;;13.20;6.90;;;3.30;52.00;;;;;;5084272;28;34598;-75
2022/01/26 11:32:36;;;;;;;12.80;6.07;;;3.40;52.10;;;;;;5083187;28;35461;-75
2022/01/26 11:35:07;;;;;;;14.75;7.90;;;3.40;51.90;;;;;;5067933;28;34295;-75
2022/01/26 11:37:47;;;;;;;12.52;6.95;;;3.50;52.10;;;;;;5049612;28;34212;-75
2022/01/26 11:45:43;;;;;;;13.35;7.25;;;3.40;51.70;;;;;;5067774;28;34208;-75
2022/01/26 11:48:21;;;;;;;15.77;8.18;;;3.50;52.10;;;;;;5033104;28;34138;-75
2022/01/26 11:51:00;;;;;;;19.38;7.50;;;3.50;52.00;;;;;;5034256;28;34469;-75
2022/01/26 11:53:28;;;;;;;12.82;7.22;;;3.60;51.70;;;;;;5065574;28;36312;-75
2022/01/26 11:56:02;;;;;;;14.30;7.43;;;3.60;51.90;;;;;;5049061;28;34206;-75
2022/01/26 11:58:31;;;;;;;13.15;7.15;;;3.60;51.70;;;;;;5050374;28;34201;-75
2022/01/26 12:04:02;;;;;;;13.13;7.25;;;3.60;51.50;;;;;;5083544;28;34229;-75
2022/01/26 12:06:30;;;;;;;15.35;7.40;;;3.70;51.30;;;;;;5048877;28;34441;-75
2022/01/26 12:08:59;;;;;;;16.25;8.15;;;3.70;52.00;;;;;;5049462;28;34188;-75
2022/01/26 12:11:29;;;;;;;14.85;6.90;;;3.70;51.80;;;;;;5049225;28;34187;-75
2022/01/26 12:14:05;;;;;;;12.73;7.28;;;3.70;52.70;;;;;;5065907;28;35736;-75
2022/01/26 12:16:36;;;;;;;15.27;7.70;;;3.80;51.80;;;;;;5048944;28;34198;-75
2022/01/26 12:19:24;;;;;;;14.55;6.75;;;3.70;51.90;;;;;;5066798;28;34064;-75
2022/01/26 12:33:21;;;;;;;12.75;6.15;;;3.80;51.80;;;;;;5068069;28;34274;-75
2022/01/26 12:35:57;;;;;;;12.65;6.78;;;3.80;51.90;;;;;;5040348;28;34314;-75
2022/01/26 12:38:45;;;;;;;16.17;7.35;;;3.80;51.80;;;;;;5050593;28;34195;-75
2022/01/26 12:41:21;;;;;;;13.13;7.05;;;3.80;51.70;;;;;;5065180;28;34132;-75
2022/01/26 12:43:53;;;;;;;15.40;7.25;;;3.80;51.70;;;;;;5052001;28;34399;-75
2022/01/26 12:46:24;;;;;;;10.10;5.72;;;3.90;51.90;;;;;;5048586;28;36610;-75
2022/01/26 12:48:54;;;;;;;11.38;5.90;;;3.90;51.90;;;;;;5048867;28;34101;-75
2022/01/26 12:51:21;;;;;;;10.65;5.28;;;3.90;52.10;;;;;;5048513;28;34399;-75
2022/01/26 12:53:54;;;;;;;12.15;6.28;;;3.90;52.30;;;;;;5065353;28;34049;-75
2022/01/26 12:56:20;;;;;;;11.07;5.68;;;4.00;52.10;;;;;;5065445;28;35610;-75
2022/01/26 12:58:46;;;;;;;12.38;6.10;;;4.00;52.10;;;;;;5064460;28;34192;-75
2022/01/26 13:01:17;;;;;;;9.35;4.82;;;4.00;51.90;;;;;;5064942;28;34209;-75
2022/01/26 13:03:46;;;;;;;11.35;4.93;;;4.00;51.80;;;;;;5081866;28;34381;-75
2022/01/26 13:06:23;;;;;;;11.27;5.47;;;4.00;51.70;;;;;;5083291;28;34922;-75
2022/01/26 13:08:52;;;;;;;10.02;5.45;;;4.00;52.00;;;;;;5065218;28;34157;-75
2022/01/26 13:11:34;;;;;;;10.93;5.43;;;4.00;52.00;;;;;;5048621;28;34449;-75
2022/01/26 13:14:27;;;;;;;9.68;5.30;;;4.00;51.60;;;;;;5065321;28;34402;-75
2022/01/26 13:25:47;;;;;;;14.70;5.88;;;4.10;51.90;;;;;;5084097;28;34814;-75
2022/01/26 13:28:32;;;;;;;10.27;5.53;;;4.10;51.80;;;;;;5050389;28;36611;-76
2022/01/26 13:31:21;;;;;;;14.55;5.97;;;4.10;52.20;;;;;;5051104;28;34097;-75
2022/01/26 13:34:16;;;;;;;12.52;5.70;;;4.10;52.10;;;;;;5067128;28;34247;-75
2022/01/26 13:36:52;;;;;;;11.07;5.30;;;4.20;52.10;;;;;;5068035;28;34200;-76
2022/01/26 13:39:36;;;;;;;13.75;5.95;;;4.20;52.00;;;;;;5081885;28;34265;-75
2022/01/26 13:45:07;;;;;;;12.57;6.15;;;4.30;52.10;;;;;;5082619;28;34140;-75
2022/01/26 13:47:59;;;;;;;13.15;5.63;;;4.30;52.10;;;;;;5067544;28;34104;-76
2022/01/26 13:50:31;;;;;;;11.63;5.07;;;4.30;51.80;;;;;;5067154;28;35276;-75
2022/01/26 13:53:09;;;;;;;11.75;5.72;;;4.30;51.80;;;;;;5050074;28;34154;-75
2022/01/26 13:58:28;;;;;;;8.98;5.30;;;4.20;51.50;;;;;;5081743;28;34093;-75
2022/01/26 14:00:59;;;;;;;9.70;4.95;;;4.20;51.40;;;;;;5034813;28;36715;-75
2022/01/26 14:03:28;;;;;;;14.10;5.03;;;4.20;51.30;;;;;;5064127;28;34153;-75
2022/01/26 14:05:55;;;;;;;10.63;4.32;;;4.20;51.60;;;;;;5064889;28;34328;-75
2022/01/26 14:08:21;;;;;;;10.65;5.18;;;4.10;51.30;;;;;;5064036;28;34079;-75
2022/01/26 14:10:49;;;;;;;11.52;5.53;;;4.10;51.90;;;;;;5031038;28;36148;-75
2022/01/26 14:13:20;;;;;;;10.30;5.70;;;4.10;51.80;;;;;;5064260;28;34164;-75
2022/01/26 14:15:49;;;;;;;9.23;5.13;;;4.10;51.80;;;;;;5067134;28;34200;-76
2022/01/26 14:26:24;;;;;;;12.80;5.68;;;4.10;51.90;;;;;;5070227;28;34380;-75
2022/01/26 14:28:50;;;;;;;12.32;4.97;;;4.20;52.00;;;;;;5067608;28;34563;-75
2022/01/26 14:31:29;;;;;;;12.15;5.15;;;4.20;51.90;;;;;;5050457;28;36007;-75
2022/01/26 14:34:23;;;;;;;8.93;4.70;;;4.20;51.80;;;;;;5085285;28;34413;-75
2022/01/26 14:53:34;;;;;;;9.75;4.30;;;4.20;51.50;;;;;;5068480;28;34728;-75
2022/01/26 15:08:45;;;;;;;10.80;5.18;;;4.10;51.80;;;;;;5054673;28;34137;-75
2022/01/26 15:09:46;;;;;;;10.00;5.10;;;4.10;51.70;;;;;;5055950;28;34169;-75
2022/01/26 15:21:16;;;;;;;15.80;5.43;;;4.00;51.80;;;;;;5069432;28;34589;-75
2022/01/26 15:33:43;;;;;;;12.13;5.40;;;4.00;51.30;;;;;;5069730;28;34235;-75
2022/01/26 15:41:57;;;;;;;11.52;5.25;;;3.90;51.60;;;;;;5084656;28;34164;-75
2022/01/26 15:44:26;;;;;;;11.90;5.85;;;3.90;51.50;;;;;;5042294;28;34545;-75
2022/01/26 15:49:45;;;;;;;9.85;5.22;;;3.90;51.70;;;;;;5084821;28;34588;-75
2022/01/26 15:52:35;;;;;;;10.85;5.82;;;3.90;51.50;;;;;;5067076;28;34195;-75
2022/01/26 16:06:05;;;;;;;13.65;6.35;;;3.80;51.70;;;;;;5084567;28;34064;-75
2022/01/26 16:12:39;;;;;;;13.73;6.15;;;3.80;51.50;;;;;;5065568;28;36006;-75
2022/01/26 16:17:08;;;;;;;14.52;6.18;;;3.70;51.70;;;;;;5068412;28;34144;-76